Weather at Šalgovce-Orešany Airstrip

Public forecast

Using degrees Celsius for public forecast. Weather courtesy of forecast.io.

Closest aviation weather report (METAR) to Šalgovce-Orešany Airstrip

Closest report is Piešťany Airport, 7.9 nm (14.7 km) NNW.

2024/04/25 06:30 (retrieved 38 minutes ago)

LZPP 250630Z VRB01KT 9999 FEW030 05/03 Q1009

Closest aviation forecast (TAF) to Šalgovce-Orešany Airstrip

Closest forecast is M. R. Štefánik Airport, 34.9 nm (64.5 km) SW.

2024/04/25 06:06 (retrieved 1 hour ago)

TAF LZIB 250515Z 2506/2606 22008KT CAVOK BECMG 2513/2515 22008KT BECMG 2519/2521 VRB02KT TEMPO 2523/2606 2000 BR SCT003 BKN008